EKCH/CPH METAR and TAF weather

Enter ICAO airport designator
Station Type Date Time Source
EKCH METAR 2021/05/15 23:20 UTC NOAA

EKCH 152320Z AUTO 13007KT 9999 FEW043/// BKN066/// 09/07 Q1003 NOSIG


Station Type Date Time Source
EKCH Decoded METAR 2021/05/15 23:20 UTC NOAA

Koebenhavn / Kastrup, Denmark (EKCH) 55-37N 012-39E 5M
May 15, 2021 - 07:20 PM EDT / 2021.05.15 2320 UTC
Wind: from the SE (130 degrees) at 8 MPH (7 KT):0
Visibility: greater than 7 mile(s):0
Sky conditions: mostly cloudy
Temperature: 48 F (9 C)
Dew Point: 44 F (7 C)
Relative Humidity: 87%
Pressure (altimeter): 29.62 in. Hg (1003 hPa)
ob: EKCH 152320Z AUTO 13007KT 9999 FEW043/// BKN066/// 09/07 Q1003 NOSIG
cycle: 23

Station Type Date Time Source
EKCH TAF 2021/05/15 18:30 UTC NOAA

TAF EKCH 151708Z 1518/1618 15008KT 9999 BKN020
TEMPO 1522/1601 SCT030CB PROB40 1601/1604 3000 -SHRA BR BKN003 BKN030CB
TEMPO 1604/1610 3000 -SHRA BR BKN005 BKN030CB
TEMPO 1610/1618 SHRA BKN030CB

Example: see airport list